Terminal Aerodrome Forecast
Issued by NWS Albany, NY

Home | Current Version | Previous Version | Text Only | Print | Product List | Glossary On
Versions: 1 2 3 4 5 6 7 8 9 10 11 12 13 14 15 16
948
FTUS41 KALY 141722
TAFGFL
TAF
KGFL 141722Z 1418/1518 36009KT P6SM SKC
     FM150000 VRB03KT P6SM SKC
     FM151600 15005KT P6SM SCT100 BKN200=

USA.gov is the U.S. government's official web portal to all federal, state and local government web resources and services.